createdAt,value
2017-10-30T00:02:37.026Z,59.17
2017-10-30T00:05:14.156Z,58.82
2017-10-30T00:07:51.821Z,58.95
2017-10-30T00:10:28.453Z,59.04
2017-10-30T00:13:08.032Z,59.09
2017-10-30T00:15:44.737Z,59.38
2017-10-30T00:18:22.486Z,59.48
2017-10-30T00:21:00.600Z,59.41
2017-10-30T00:23:38.201Z,59.30
2017-10-30T00:26:15.244Z,59.33
2017-10-30T00:28:54.432Z,59.59
2017-10-30T00:31:33.489Z,59.27
2017-10-30T00:34:12.084Z,59.58
2017-10-30T00:36:48.775Z,59.18
2017-10-30T00:39:26.395Z,58.78
2017-10-30T00:42:07.555Z,58.42
2017-10-30T00:44:46.369Z,58.30
2017-10-30T00:47:23.073Z,58.21
2017-10-30T00:49:59.999Z,58.41
2017-10-30T00:52:38.158Z,58.51
2017-10-30T00:55:18.573Z,58.44
2017-10-30T00:57:55.673Z,58.52
2017-10-30T01:00:35.734Z,58.56
2017-10-30T01:03:14.651Z,58.54
2017-10-30T01:05:52.967Z,58.84
2017-10-30T01:08:29.506Z,58.63
2017-10-30T01:11:07.578Z,58.95
2017-10-30T01:13:48.406Z,59.01
2017-10-30T01:16:25.700Z,58.91
2017-10-30T01:19:04.494Z,58.96
2017-10-30T01:21:43.932Z,59.06
2017-10-30T01:24:20.891Z,58.94
2017-10-30T01:27:03.109Z,58.92
2017-10-30T01:29:39.895Z,58.86
2017-10-30T01:32:17.811Z,58.83
2017-10-30T01:34:57.060Z,58.89
2017-10-30T01:37:34.818Z,58.99
2017-10-30T01:40:12.971Z,59.26
2017-10-30T01:42:51.741Z,59.31
2017-10-30T01:45:30.430Z,59.16
2017-10-30T01:48:06.907Z,59.49
2017-10-30T01:50:48.818Z,59.90
2017-10-30T01:53:34.932Z,60.24
2017-10-30T02:05:09.658Z,60.70
2017-10-30T02:07:52.127Z,60.21
2017-10-30T02:10:34.123Z,59.99
2017-10-30T02:13:12.766Z,60.48
2017-10-30T02:15:54.865Z,60.58
2017-10-30T02:18:32.498Z,60.73
2017-10-30T02:21:09.598Z,60.27
2017-10-30T02:23:46.095Z,60.25
2017-10-30T02:26:29.797Z,60.92
2017-10-30T02:29:08.380Z,60.54
2017-10-30T02:31:45.494Z,60.81
2017-10-30T02:34:32.601Z,60.92
2017-10-30T02:37:09.916Z,60.97
2017-10-30T02:39:46.595Z,61.18
2017-10-30T02:42:27.529Z,61.21
2017-10-30T02:45:10.685Z,61.88
2017-10-30T02:47:51.618Z,61.82
2017-10-30T02:50:28.657Z,61.88
2017-10-30T02:53:07.393Z,61.56
2017-10-30T02:55:43.693Z,61.86
2017-10-30T02:58:22.078Z,62.04
2017-10-30T03:00:58.418Z,62.06
2017-10-30T03:03:36.472Z,62.27
2017-10-30T03:06:12.964Z,62.33
2017-10-30T03:08:52.754Z,62.20
2017-10-30T03:11:29.381Z,62.27
2017-10-30T03:14:07.602Z,62.38
2017-10-30T03:16:44.263Z,62.85
2017-10-30T03:19:21.162Z,63.16
2017-10-30T03:21:57.523Z,63.36
2017-10-30T03:24:34.233Z,63.82
2017-10-30T03:27:12.302Z,63.70
2017-10-30T03:29:52.750Z,64.06
2017-10-30T03:32:29.690Z,63.57
2017-10-30T03:35:07.487Z,63.78
2017-10-30T03:37:44.731Z,63.91
2017-10-30T03:43:13.197Z,63.68
2017-10-30T03:45:50.424Z,63.86
2017-10-30T03:48:27.696Z,63.79
2017-10-30T03:51:04.528Z,63.86
2017-10-30T03:53:46.404Z,63.75
2017-10-30T03:56:15.383Z,63.95
2017-10-30T03:58:54.129Z,63.65
2017-10-30T04:01:40.418Z,64.20
2017-10-30T04:04:17.386Z,63.87
2017-10-30T04:06:56.279Z,63.14
2017-10-30T04:09:32.658Z,62.81
2017-10-30T04:12:12.158Z,62.50
2017-10-30T04:14:51.361Z,62.39
2017-10-30T04:17:38.122Z,62.30
2017-10-30T04:20:17.486Z,61.76
2017-10-30T04:22:56.649Z,61.19
2017-10-30T04:25:37.986Z,61.41
2017-10-30T04:28:17.513Z,60.96
2017-10-30T04:30:53.885Z,60.82
2017-10-30T04:33:31.020Z,60.77
2017-10-30T04:36:07.529Z,60.70
2017-10-30T04:38:46.115Z,60.54
2017-10-30T04:41:25.283Z,60.97
2017-10-30T04:44:01.976Z,61.04
2017-10-30T04:46:42.809Z,61.43
2017-10-30T04:49:19.270Z,61.02
2017-10-30T04:51:57.924Z,61.09
2017-10-30T04:54:34.393Z,60.85
2017-10-30T04:57:15.261Z,60.72
2017-10-30T04:59:51.762Z,60.62
2017-10-30T05:02:43.219Z,60.51
2017-10-30T05:05:19.660Z,60.40
2017-10-30T05:07:58.337Z,60.44
2017-10-30T05:10:37.131Z,60.57
2017-10-30T05:13:16.432Z,60.53
2017-10-30T05:16:01.843Z,60.51
2017-10-30T05:18:38.293Z,60.46
2017-10-30T05:21:20.562Z,59.98
2017-10-30T05:23:56.817Z,59.50
2017-10-30T05:26:42.641Z,59.52
2017-10-30T05:29:21.225Z,59.21
2017-10-30T05:31:59.209Z,59.79
2017-10-30T05:34:35.794Z,59.94
2017-10-30T05:37:12.839Z,59.26
2017-10-30T05:39:49.147Z,58.79
2017-10-30T05:42:26.193Z,58.41
2017-10-30T05:45:04.861Z,58.63
2017-10-30T05:47:42.194Z,58.20
2017-10-30T05:50:19.309Z,58.04
2017-10-30T05:52:58.289Z,57.81
2017-10-30T05:55:27.195Z,58.47
2017-10-30T05:58:06.094Z,58.01
2017-10-30T06:00:42.522Z,58.35
2017-10-30T06:03:19.379Z,58.85
2017-10-30T06:05:56.493Z,58.70
2017-10-30T06:08:35.472Z,58.08
2017-10-30T06:11:14.322Z,58.08
2017-10-30T06:16:33.123Z,58.27
2017-10-30T06:19:09.675Z,58.27
2017-10-30T06:21:47.668Z,58.79
2017-10-30T06:24:24.283Z,58.75
2017-10-30T06:27:03.217Z,58.86
2017-10-30T06:29:40.036Z,58.96
2017-10-30T06:32:17.410Z,58.45
2017-10-30T06:34:54.418Z,58.30
2017-10-30T06:37:32.503Z,58.67
2017-10-30T06:40:09.356Z,58.19
2017-10-30T06:42:46.443Z,58.73
2017-10-30T06:45:23.234Z,58.45
2017-10-30T06:48:00.769Z,58.01
2017-10-30T06:50:37.835Z,58.03
2017-10-30T06:53:19.165Z,59.03
2017-10-30T06:55:55.833Z,57.56
2017-10-30T06:58:32.994Z,57.15
2017-10-30T07:01:09.910Z,56.94
2017-10-30T07:03:48.890Z,56.57
2017-10-30T07:06:25.320Z,56.64
2017-10-30T07:09:06.532Z,56.32
2017-10-30T07:11:43.363Z,56.32
2017-10-30T07:14:20.813Z,55.39
2017-10-30T07:16:58.353Z,56.00
2017-10-30T07:19:37.099Z,55.04
2017-10-30T07:22:14.288Z,55.92
2017-10-30T07:24:51.603Z,54.78
2017-10-30T07:27:28.256Z,54.89
2017-10-30T07:30:04.546Z,55.20
2017-10-30T07:32:41.036Z,55.05
2017-10-30T07:35:18.286Z,53.61
2017-10-30T07:37:54.666Z,53.57
2017-10-30T07:40:31.635Z,51.42
2017-10-30T07:43:08.545Z,51.46
2017-10-30T07:45:45.781Z,52.13
2017-10-30T07:48:22.834Z,50.11
2017-10-30T07:51:05.372Z,50.89
2017-10-30T07:53:56.603Z,50.90
2017-10-30T07:56:25.719Z,51.50
2017-10-30T07:59:02.128Z,50.96
2017-10-30T08:01:38.425Z,50.71
2017-10-30T08:04:15.509Z,49.39
2017-10-30T08:06:53.199Z,48.92
2017-10-30T08:09:30.171Z,48.61
2017-10-30T08:12:07.180Z,49.22
2017-10-30T08:14:44.049Z,48.75
2017-10-30T08:17:21.114Z,48.15
2017-10-30T08:19:58.411Z,48.66
2017-10-30T08:22:29.511Z,48.27
2017-10-30T08:25:05.803Z,47.62
2017-10-30T08:27:42.465Z,46.69
2017-10-30T08:30:19.351Z,47.47
2017-10-30T08:32:56.267Z,47.03
2017-10-30T08:35:32.976Z,46.59
2017-10-30T08:38:09.061Z,46.97
2017-10-30T08:40:46.360Z,47.24
2017-10-30T08:43:22.970Z,47.13
2017-10-30T08:45:59.189Z,45.70
2017-10-30T08:48:37.734Z,46.49
2017-10-30T08:51:14.215Z,46.71
2017-10-30T08:53:52.624Z,45.52
2017-10-30T08:56:29.299Z,45.04
2017-10-30T08:59:06.385Z,44.43
2017-10-30T09:01:43.016Z,45.29
2017-10-30T09:04:19.980Z,45.74
2017-10-30T09:06:56.381Z,45.37
2017-10-30T09:09:38.775Z,44.61
2017-10-30T09:12:15.834Z,45.79
2017-10-30T09:14:53.019Z,46.16
2017-10-30T09:17:29.247Z,45.99
2017-10-30T09:20:06.928Z,43.92
2017-10-30T09:22:43.364Z,43.27
2017-10-30T09:25:20.358Z,44.02
2017-10-30T09:27:57.333Z,43.65
2017-10-30T09:30:36.485Z,43.50
2017-10-30T09:33:13.051Z,44.34
2017-10-30T09:35:50.764Z,45.07
2017-10-30T09:38:27.843Z,44.48
2017-10-30T09:41:07.166Z,44.35
2017-10-30T09:43:44.275Z,43.44
2017-10-30T09:46:21.855Z,44.49
2017-10-30T09:48:58.554Z,44.88
2017-10-30T09:51:35.414Z,45.02
2017-10-30T09:54:12.613Z,43.37
2017-10-30T09:56:42.550Z,43.09
2017-10-30T09:59:21.437Z,42.81
2017-10-30T10:01:57.756Z,43.18
2017-10-30T10:04:34.438Z,42.17
2017-10-30T10:07:11.242Z,42.14
2017-10-30T10:09:49.628Z,41.92
2017-10-30T10:12:27.274Z,41.10
2017-10-30T10:15:04.247Z,41.24
2017-10-30T10:17:42.426Z,41.43
2017-10-30T10:20:18.792Z,41.42
2017-10-30T10:22:56.793Z,41.76
2017-10-30T10:25:33.611Z,41.18
2017-10-30T10:28:11.918Z,41.83
2017-10-30T10:30:48.832Z,42.22
2017-10-30T10:33:29.600Z,42.21
2017-10-30T10:36:06.195Z,41.21
2017-10-30T10:38:42.792Z,41.01
2017-10-30T10:41:19.261Z,41.45
2017-10-30T10:43:57.025Z,41.66
2017-10-30T10:46:33.742Z,42.20
2017-10-30T10:49:10.571Z,41.37
2017-10-30T10:51:47.585Z,41.39
2017-10-30T10:54:27.841Z,41.83
2017-10-30T10:57:05.025Z,41.78
2017-10-30T10:59:43.430Z,42.03
2017-10-30T11:02:20.183Z,42.25
2017-10-30T11:04:57.223Z,42.10
2017-10-30T11:07:33.861Z,38.71
2017-10-30T11:10:10.563Z,38.48
2017-10-30T11:12:47.238Z,38.70
2017-10-30T11:15:24.557Z,39.31
2017-10-30T11:18:01.452Z,39.34
2017-10-30T11:20:43.097Z,39.52
2017-10-30T11:23:19.927Z,39.64
2017-10-30T11:25:57.412Z,39.11
2017-10-30T11:28:34.126Z,39.04
2017-10-30T11:31:10.877Z,38.44
2017-10-30T11:33:48.104Z,36.04
2017-10-30T11:36:30.460Z,37.60
2017-10-30T11:39:08.277Z,38.18
2017-10-30T11:41:45.064Z,37.95
2017-10-30T11:44:22.811Z,35.14
2017-10-30T11:46:59.441Z,36.46
2017-10-30T11:49:36.470Z,36.38
2017-10-30T11:52:13.632Z,36.74
2017-10-30T11:54:42.580Z,35.85
2017-10-30T11:57:20.064Z,35.52
2017-10-30T11:59:56.919Z,36.54
2017-10-30T12:02:33.946Z,36.83
2017-10-30T12:05:11.100Z,37.50
2017-10-30T12:07:50.173Z,38.27
2017-10-30T12:10:26.595Z,38.80
2017-10-30T12:13:02.860Z,38.85
2017-10-30T12:15:39.309Z,37.56
2017-10-30T12:18:17.222Z,37.10
2017-10-30T12:20:53.392Z,37.21
2017-10-30T12:23:30.422Z,36.92
2017-10-30T12:26:06.944Z,36.60
2017-10-30T12:28:44.781Z,36.65
2017-10-30T12:31:21.638Z,36.66
2017-10-30T12:33:59.245Z,35.05
2017-10-30T12:36:35.571Z,35.62
2017-10-30T12:39:13.361Z,36.55
2017-10-30T12:41:49.682Z,35.59
2017-10-30T12:44:27.028Z,36.45
2017-10-30T12:47:04.227Z,37.28
2017-10-30T12:49:41.044Z,37.25
2017-10-30T12:52:18.035Z,36.98
2017-10-30T12:54:54.722Z,35.39
2017-10-30T12:57:31.444Z,35.94
2017-10-30T13:00:08.752Z,35.86
2017-10-30T13:02:45.575Z,36.25
2017-10-30T13:05:25.582Z,37.12
2017-10-30T13:08:02.747Z,36.67
2017-10-30T13:10:39.592Z,36.71
2017-10-30T13:13:16.418Z,36.21
2017-10-30T13:15:55.201Z,36.07
2017-10-30T13:21:19.621Z,36.05
2017-10-30T13:23:55.838Z,35.98
2017-10-30T13:26:32.710Z,36.11
2017-10-30T13:29:11.165Z,36.30
2017-10-30T13:31:50.466Z,36.52
2017-10-30T13:34:27.037Z,36.21
2017-10-30T13:37:03.812Z,35.58
2017-10-30T13:39:40.646Z,36.34
2017-10-30T13:42:19.868Z,37.35
2017-10-30T13:44:56.827Z,37.75
2017-10-30T13:47:39.988Z,38.29
2017-10-30T13:50:21.300Z,38.49
2017-10-30T13:52:58.401Z,38.99
2017-10-30T13:55:27.403Z,39.89
2017-10-30T13:58:03.734Z,39.37
2017-10-30T14:00:40.677Z,38.52
2017-10-30T14:03:21.655Z,39.60
2017-10-30T14:05:59.706Z,39.60
2017-10-30T14:08:36.784Z,39.77
2017-10-30T14:11:13.514Z,40.67
2017-10-30T14:13:49.910Z,41.45
2017-10-30T14:16:26.862Z,41.14
2017-10-30T14:19:04.016Z,41.12
2017-10-30T14:21:41.029Z,40.83
2017-10-30T14:24:17.939Z,40.30
2017-10-30T14:26:56.218Z,40.40
2017-10-30T14:29:33.382Z,40.36
2017-10-30T14:32:10.534Z,41.30
2017-10-30T14:34:48.638Z,41.19
2017-10-30T14:37:25.446Z,42.05
2017-10-30T14:40:02.120Z,41.76
2017-10-30T14:42:38.519Z,41.89
2017-10-30T14:45:14.815Z,42.45
2017-10-30T14:47:51.578Z,42.64
2017-10-30T14:50:28.545Z,43.18
2017-10-30T14:53:05.297Z,43.43
2017-10-30T14:55:43.666Z,44.04
2017-10-30T14:58:20.470Z,44.63
2017-10-30T15:00:57.602Z,44.21
2017-10-30T15:03:33.923Z,44.38
2017-10-30T15:06:10.835Z,44.52
2017-10-30T15:08:47.097Z,44.70
2017-10-30T15:11:24.342Z,44.59
2017-10-30T15:14:01.619Z,45.27
2017-10-30T15:16:38.356Z,45.98
2017-10-30T15:19:15.617Z,45.94
2017-10-30T15:21:54.255Z,45.86
2017-10-30T15:24:30.841Z,46.68
2017-10-30T15:27:07.690Z,46.87
2017-10-30T15:29:46.642Z,46.69
2017-10-30T15:32:23.496Z,46.93
2017-10-30T15:35:00.499Z,47.16
2017-10-30T15:37:37.215Z,47.67
2017-10-30T15:40:14.434Z,48.21
2017-10-30T15:42:51.338Z,48.24
2017-10-30T15:45:28.407Z,48.49
2017-10-30T15:48:06.306Z,48.98
2017-10-30T15:50:43.031Z,49.46
2017-10-30T15:53:21.631Z,49.26
2017-10-30T15:55:50.443Z,48.98
2017-10-30T15:58:28.369Z,49.36
2017-10-30T16:01:05.512Z,49.25
2017-10-30T16:03:42.586Z,48.76
2017-10-30T16:06:19.713Z,49.10
2017-10-30T16:08:57.243Z,49.43
2017-10-30T16:11:33.990Z,49.51
2017-10-30T16:14:12.180Z,49.95
2017-10-30T16:16:49.839Z,49.30
2017-10-30T16:19:27.854Z,49.15
2017-10-30T16:22:04.741Z,50.02
2017-10-30T16:24:42.610Z,49.64
2017-10-30T16:27:19.029Z,49.93
2017-10-30T16:29:57.867Z,50.08
2017-10-30T16:32:34.579Z,50.11
2017-10-30T16:35:12.035Z,50.41
2017-10-30T16:37:50.811Z,50.25
2017-10-30T16:40:29.238Z,50.56
2017-10-30T16:43:06.134Z,50.40
2017-10-30T16:45:45.863Z,50.19
2017-10-30T16:48:22.715Z,50.45
2017-10-30T16:50:59.588Z,50.77
2017-10-30T16:53:35.957Z,50.94
2017-10-30T16:56:12.387Z,51.28
2017-10-30T16:58:48.875Z,51.48
2017-10-30T17:01:26.058Z,50.33
2017-10-30T17:04:02.915Z,50.26
2017-10-30T17:06:39.712Z,50.11
2017-10-30T17:09:17.333Z,50.51
2017-10-30T17:11:57.425Z,50.68
2017-10-30T17:14:34.598Z,49.98
2017-10-30T17:17:11.419Z,49.90
2017-10-30T17:19:48.323Z,50.08
2017-10-30T17:22:26.086Z,49.98
2017-10-30T17:25:03.028Z,49.71
2017-10-30T17:27:40.779Z,49.75
2017-10-30T17:30:17.529Z,50.10
2017-10-30T17:32:55.173Z,50.13
2017-10-30T17:35:32.259Z,50.47
2017-10-30T17:38:09.151Z,50.68
2017-10-30T17:40:51.044Z,50.34
2017-10-30T17:43:29.090Z,50.28
2017-10-30T17:46:14.766Z,50.56
2017-10-30T17:48:52.383Z,50.87
2017-10-30T17:51:28.917Z,51.36
2017-10-30T17:54:06.562Z,51.54
2017-10-30T17:56:35.472Z,51.63
2017-10-30T17:59:14.585Z,52.05
2017-10-30T18:01:51.188Z,52.06
2017-10-30T18:04:30.507Z,52.30
2017-10-30T18:07:06.964Z,52.31
2017-10-30T18:09:43.830Z,52.87
2017-10-30T18:12:20.574Z,52.55
2017-10-30T18:14:58.026Z,52.47
2017-10-30T18:17:35.016Z,52.76
2017-10-30T18:20:11.888Z,52.66
2017-10-30T18:22:49.762Z,52.81
2017-10-30T18:25:27.467Z,53.27
2017-10-30T18:28:04.806Z,53.93
2017-10-30T18:30:44.056Z,53.49
2017-10-30T18:33:21.253Z,53.38
2017-10-30T18:35:58.237Z,53.73
2017-10-30T18:38:35.218Z,54.14
2017-10-30T18:41:12.992Z,54.50
2017-10-30T18:43:49.516Z,54.40
2017-10-30T18:46:26.386Z,54.42
2017-10-30T18:49:02.931Z,54.65
2017-10-30T18:51:42.914Z,54.59
2017-10-30T18:54:19.308Z,54.04
2017-10-30T18:56:55.726Z,54.08
2017-10-30T18:59:34.246Z,53.95
2017-10-30T19:02:05.693Z,54.12
2017-10-30T19:04:34.640Z,54.67
2017-10-30T19:07:12.404Z,54.49
2017-10-30T19:09:49.143Z,54.46
2017-10-30T19:12:28.725Z,54.34
2017-10-30T19:15:05.464Z,54.55
2017-10-30T19:17:42.578Z,54.45
2017-10-30T19:20:19.302Z,54.02
2017-10-30T19:22:57.082Z,53.74
2017-10-30T19:25:33.752Z,53.08
2017-10-30T19:28:13.375Z,53.16
2017-10-30T19:30:50.151Z,53.15
2017-10-30T19:33:28.062Z,53.21
2017-10-30T19:36:04.395Z,52.82
2017-10-30T19:38:41.574Z,52.92
2017-10-30T19:41:18.247Z,53.21
2017-10-30T19:43:58.769Z,53.50
2017-10-30T19:46:35.684Z,53.69
2017-10-30T19:49:12.862Z,53.43
2017-10-30T19:51:49.928Z,53.85
2017-10-30T19:54:31.043Z,53.59
2017-10-30T19:57:00.009Z,53.85
2017-10-30T19:59:36.739Z,53.61
2017-10-30T20:02:13.230Z,54.00
2017-10-30T20:04:50.998Z,53.90
2017-10-30T20:07:33.275Z,53.95
2017-10-30T20:10:16.203Z,54.12
2017-10-30T20:12:53.439Z,53.69
2017-10-30T20:15:30.624Z,53.88
2017-10-30T20:18:11.714Z,53.95
2017-10-30T20:20:48.958Z,54.05
2017-10-30T20:23:27.657Z,54.27
2017-10-30T20:26:04.863Z,54.02
2017-10-30T20:28:41.540Z,53.86
2017-10-30T20:31:24.251Z,53.48
2017-10-30T20:34:01.283Z,53.43
2017-10-30T20:36:39.212Z,53.40
2017-10-30T20:39:15.546Z,53.37
2017-10-30T20:41:52.765Z,53.34
2017-10-30T20:44:29.719Z,53.24
2017-10-30T20:47:06.751Z,53.23
2017-10-30T20:49:43.596Z,53.58
2017-10-30T20:52:21.731Z,53.32
2017-10-30T20:54:58.598Z,53.32
2017-10-30T20:57:35.819Z,53.21
2017-10-30T21:00:12.291Z,53.01
2017-10-30T21:02:41.281Z,53.05
2017-10-30T21:05:10.230Z,52.86
2017-10-30T21:07:46.831Z,52.92
2017-10-30T21:10:23.661Z,52.82
2017-10-30T21:13:01.627Z,53.19
2017-10-30T21:15:43.337Z,53.25
2017-10-30T21:18:20.643Z,53.29
2017-10-30T21:20:57.323Z,53.83
2017-10-30T21:23:35.988Z,53.85
2017-10-30T21:26:13.073Z,53.72
2017-10-30T21:28:52.032Z,53.76
2017-10-30T21:31:30.428Z,54.16
2017-10-30T21:34:07.991Z,54.16
2017-10-30T21:36:44.380Z,54.30
2017-10-30T21:39:21.225Z,54.71
2017-10-30T21:41:58.037Z,54.39
2017-10-30T21:44:34.506Z,54.55
2017-10-30T21:47:11.656Z,54.64
2017-10-30T21:49:50.168Z,55.08
2017-10-30T21:52:26.523Z,55.36
2017-10-30T21:55:04.574Z,54.80
2017-10-30T21:57:41.491Z,54.95
2017-10-30T22:00:19.101Z,54.92
2017-10-30T22:02:56.426Z,54.92
2017-10-30T22:05:36.244Z,55.31
2017-10-30T22:08:12.928Z,55.57
2017-10-30T22:10:50.641Z,55.52
2017-10-30T22:13:28.302Z,55.88
2017-10-30T22:16:04.993Z,55.76
2017-10-30T22:18:41.227Z,55.51
2017-10-30T22:21:17.759Z,55.50
2017-10-30T22:23:54.798Z,55.26
2017-10-30T22:26:32.291Z,55.12
2017-10-30T22:29:09.158Z,55.51
2017-10-30T22:31:53.006Z,56.21
2017-10-30T22:34:29.572Z,57.02
2017-10-30T22:37:07.411Z,57.27
2017-10-30T22:39:44.370Z,57.49
2017-10-30T22:42:21.274Z,57.90
2017-10-30T22:45:00.026Z,57.55
2017-10-30T22:47:37.088Z,57.93
2017-10-30T22:50:14.440Z,58.22
2017-10-30T22:52:51.017Z,59.07
2017-10-30T22:55:29.841Z,58.29
2017-10-30T22:58:07.966Z,58.39
2017-10-30T23:00:44.464Z,58.10
2017-10-30T23:03:22.630Z,58.02
2017-10-30T23:05:58.970Z,58.63
2017-10-30T23:08:36.480Z,58.07
2017-10-30T23:11:13.107Z,58.50
2017-10-30T23:19:42.487Z,58.78
2017-10-30T23:22:19.492Z,59.41
2017-10-30T23:24:56.044Z,58.94
2017-10-30T23:27:33.013Z,60.38
2017-10-30T23:30:10.817Z,60.54
2017-10-30T23:32:53.621Z,60.28
2017-10-30T23:35:31.536Z,61.23
2017-10-30T23:38:07.805Z,61.34
2017-10-30T23:40:47.748Z,62.26
2017-10-30T23:43:24.387Z,62.20
2017-10-30T23:46:07.071Z,62.98
2017-10-30T23:48:44.043Z,62.61
2017-10-30T23:51:20.779Z,62.38
2017-10-30T23:53:57.300Z,62.06
2017-10-30T23:56:26.451Z,61.03
2017-10-30T23:59:04.893Z,61.37
